Time;durP1;ratioP1;P1;durP2;ratioP2;P2;SDS_P1;SDS_P2;PMS_P1;PMS_P2;Temp;Humidity;BMP_temperature;BMP_pressure;BME280_temperature;BME280_humidity;BME280_pressure;Samples;Min_cycle;Max_cycle;Signal;HPM_P1;HPM_P2
2023/05/06 00:01:55;;;;;;;10.57;5.80;;;10.40;99.90;;;;;;4159907;28;20469;-73
2023/05/06 00:03:56;;;;;;;9.07;6.40;;;10.40;99.90;;;;;;4161689;28;20064;-61
2023/05/06 00:05:57;;;;;;;5.87;4.27;;;10.40;99.90;;;;;;4161111;28;20505;-77
2023/05/06 00:07:58;;;;;;;6.23;4.53;;;10.40;99.90;;;;;;4160923;28;20103;-68
2023/05/06 00:09:59;;;;;;;9.00;5.83;;;10.30;99.90;;;;;;4160559;28;20080;-67
2023/05/06 00:12:00;;;;;;;9.20;5.37;;;10.30;99.90;;;;;;4160910;28;20099;-71
2023/05/06 00:14:01;;;;;;;8.07;4.90;;;10.30;99.90;;;;;;4161430;28;20038;-56
2023/05/06 00:16:03;;;;;;;8.63;5.23;;;10.30;99.90;;;;;;4160487;28;20037;-72
2023/05/06 00:18:04;;;;;;;8.83;5.30;;;10.20;99.90;;;;;;4161624;28;20588;-68
2023/05/06 00:20:08;;;;;;;12.80;5.50;;;10.20;99.90;;;;;;4159848;28;20087;-56
2023/05/06 00:22:09;;;;;;;8.87;5.70;;;10.10;99.90;;;;;;4159940;28;20067;-58
2023/05/06 00:24:11;;;;;;;12.00;7.07;;;10.10;99.90;;;;;;4160568;28;20037;-71
2023/05/06 00:26:12;;;;;;;10.57;7.73;;;10.00;99.90;;;;;;4143927;28;20085;-57
2023/05/06 00:28:13;;;;;;;9.33;6.17;;;9.90;99.90;;;;;;4154271;28;20034;-64
2023/05/06 00:30:14;;;;;;;10.87;7.13;;;9.80;99.90;;;;;;4146472;28;20076;-72
2023/05/06 00:32:15;;;;;;;10.63;6.87;;;9.80;99.90;;;;;;4146004;28;20029;-70
2023/05/06 00:34:16;;;;;;;16.83;7.67;;;9.80;99.90;;;;;;4146158;28;20030;-77
2023/05/06 00:36:17;;;;;;;12.73;6.70;;;9.80;99.90;;;;;;4146884;28;20030;-73
2023/05/06 00:38:19;;;;;;;11.27;6.70;;;9.70;99.90;;;;;;4148147;28;20434;-72
2023/05/06 00:40:20;;;;;;;12.27;6.50;;;9.60;99.90;;;;;;4147765;28;20033;-73
2023/05/06 00:42:22;;;;;;;12.63;6.30;;;9.50;99.90;;;;;;4147812;28;20030;-74
2023/05/06 00:44:23;;;;;;;13.33;5.73;;;9.40;99.90;;;;;;4148131;28;20072;-64
2023/05/06 00:46:24;;;;;;;10.17;5.67;;;9.30;99.90;;;;;;4147105;28;20437;-59
2023/05/06 00:48:25;;;;;;;7.70;5.83;;;9.20;99.90;;;;;;4148221;28;20576;-58
2023/05/06 00:50:28;;;;;;;12.53;5.97;;;9.20;99.90;;;;;;4147608;28;20057;-63
2023/05/06 00:52:29;;;;;;;10.87;5.43;;;9.10;99.90;;;;;;4148332;28;20095;-58
2023/05/06 00:54:30;;;;;;;8.40;5.53;;;9.00;99.90;;;;;;4147026;28;20072;-56
2023/05/06 00:56:32;;;;;;;7.93;5.33;;;9.00;99.90;;;;;;4148886;28;20835;-74
2023/05/06 00:58:33;;;;;;;11.03;6.83;;;9.00;99.90;;;;;;4146958;28;20078;-70
2023/05/06 01:00:35;;;;;;;9.90;6.90;;;9.00;99.90;;;;;;4147808;28;20042;-73
2023/05/06 01:02:36;;;;;;;15.23;6.07;;;9.00;99.90;;;;;;4146417;28;20041;-67
2023/05/06 01:04:37;;;;;;;9.93;6.17;;;8.90;99.90;;;;;;4147619;28;20437;-74
2023/05/06 01:06:49;;;;;;;10.77;6.70;;;8.90;99.90;;;;;;4146595;28;20042;-77
2023/05/06 01:09:00;;;;;;;11.33;6.53;;;8.90;99.90;;;;;;4148007;28;20026;-77
2023/05/06 01:11:16;;;;;;;;;;;8.90;99.90;;;;;;4146868;28;20026;-70
2023/05/06 01:13:49;;;;;;;10.30;6.10;;;8.90;99.90;;;;;;4147545;28;20350;-75
2023/05/06 01:15:54;;;;;;;8.90;5.67;;;8.80;99.90;;;;;;4146606;28;20074;-71
2023/05/06 01:17:59;;;;;;;12.93;6.07;;;8.80;99.90;;;;;;4147542;28;20037;-71
2023/05/06 01:20:03;;;;;;;9.13;6.83;;;8.80;99.90;;;;;;4147208;28;20656;-60
2023/05/06 01:22:06;;;;;;;10.80;6.77;;;8.80;99.90;;;;;;4148015;28;20030;-58
2023/05/06 01:24:07;;;;;;;12.83;7.13;;;8.70;99.90;;;;;;4145886;28;20096;-59
2023/05/06 01:26:08;;;;;;;11.70;6.83;;;8.70;99.90;;;;;;4162875;28;20029;-58
2023/05/06 01:28:10;;;;;;;11.00;6.30;;;8.80;99.90;;;;;;4163090;28;20127;-56
2023/05/06 01:30:15;;;;;;;14.77;6.40;;;8.80;99.90;;;;;;4163539;28;20022;-58
2023/05/06 01:32:21;;;;;;;11.47;6.80;;;8.70;99.90;;;;;;4162546;28;20030;-57
2023/05/06 01:34:34;;;;;;;11.23;6.37;;;8.70;99.90;;;;;;4159754;28;20084;-58
2023/05/06 01:36:56;;;;;;;10.83;5.80;;;8.70;99.90;;;;;;4159793;28;20456;-77
2023/05/06 01:39:16;;;;;;;10.13;5.90;;;8.60;99.90;;;;;;4146879;28;20037;-60
2023/05/06 01:41:19;;;;;;;11.07;6.27;;;8.60;99.90;;;;;;4162845;28;20067;-63
2023/05/06 01:43:22;;;;;;;9.53;5.63;;;8.60;99.90;;;;;;4163496;28;20087;-71
2023/05/06 01:45:28;;;;;;;7.90;5.40;;;8.60;99.90;;;;;;4162835;28;20433;-74
2023/05/06 01:47:30;;;;;;;10.07;5.83;;;8.60;99.90;;;;;;4162502;28;20444;-75
2023/05/06 01:49:31;;;;;;;8.37;5.60;;;8.60;99.90;;;;;;4163489;28;20033;-75
2023/05/06 01:51:33;;;;;;;8.27;5.97;;;8.60;99.90;;;;;;4160519;28;20087;-59
2023/05/06 01:53:34;;;;;;;9.83;5.70;;;8.70;99.90;;;;;;4161586;28;20843;-58
2023/05/06 01:55:35;;;;;;;8.43;5.33;;;8.60;99.90;;;;;;4161671;28;20049;-73
2023/05/06 01:57:36;;;;;;;10.90;5.40;;;8.60;99.90;;;;;;4161964;28;20041;-75
2023/05/06 01:59:38;;;;;;;10.33;5.37;;;8.70;99.90;;;;;;4161686;28;20045;-59
2023/05/06 02:01:39;;;;;;;10.83;5.67;;;8.60;99.90;;;;;;4144539;28;20045;-69
2023/05/06 02:03:41;;;;;;;9.20;5.37;;;8.70;99.90;;;;;;4161584;28;20038;-74
2023/05/06 02:05:42;;;;;;;9.07;6.20;;;8.60;99.90;;;;;;4163519;28;20025;-75
2023/05/06 02:07:43;;;;;;;12.20;5.10;;;8.60;99.90;;;;;;4161932;28;20037;-57
2023/05/06 02:09:44;;;;;;;7.17;5.40;;;8.60;99.90;;;;;;4162776;28;20096;-73
2023/05/06 02:11:45;;;;;;;9.80;5.90;;;8.60;99.90;;;;;;4162332;28;20030;-71
2023/05/06 02:13:46;;;;;;;14.83;6.70;;;8.60;99.90;;;;;;4163246;28;20080;-57
2023/05/06 02:15:52;;;;;;;8.87;5.80;;;8.60;99.90;;;;;;4162189;28;20087;-53
2023/05/06 02:17:53;;;;;;;7.97;5.07;;;8.60;99.90;;;;;;4162692;28;20088;-57
2023/05/06 02:19:54;;;;;;;11.57;5.30;;;8.50;99.90;;;;;;4162921;28;20029;-57
2023/05/06 02:21:56;;;;;;;9.37;5.33;;;8.50;99.90;;;;;;4162172;28;20049;-54
2023/05/06 02:23:57;;;;;;;9.70;5.77;;;8.50;99.90;;;;;;4162807;28;20048;-62
2023/05/06 02:25:58;;;;;;;9.27;5.40;;;8.50;99.90;;;;;;4161831;28;20029;-57
2023/05/06 02:28:00;;;;;;;12.60;6.47;;;8.50;99.90;;;;;;4161984;28;20046;-58
2023/05/06 02:30:01;;;;;;;9.43;5.63;;;8.50;99.90;;;;;;4154066;28;20015;-70
2023/05/06 02:32:03;;;;;;;9.13;6.50;;;8.40;99.90;;;;;;4162880;28;20029;-58
2023/05/06 02:34:04;;;;;;;9.50;5.03;;;8.40;99.90;;;;;;4161262;28;20092;-58
2023/05/06 02:36:05;;;;;;;9.77;4.97;;;8.40;99.90;;;;;;4162823;28;20438;-57
2023/05/06 02:38:06;;;;;;;10.43;5.23;;;8.40;99.90;;;;;;4136400;28;20042;-60
2023/05/06 02:40:08;;;;;;;14.17;5.93;;;8.40;99.90;;;;;;4161003;28;20030;-58
2023/05/06 02:42:12;;;;;;;10.37;5.60;;;8.40;99.90;;;;;;4161644;28;20037;-57
2023/05/06 02:44:13;;;;;;;8.47;5.50;;;8.40;99.90;;;;;;4163047;28;20091;-59
2023/05/06 02:46:14;;;;;;;10.40;5.63;;;8.30;99.90;;;;;;4161575;28;20041;-76
2023/05/06 02:48:16;;;;;;;8.47;4.87;;;8.30;99.90;;;;;;4162519;28;20092;-77
2023/05/06 02:50:17;;;;;;;9.87;5.77;;;8.40;99.90;;;;;;4161533;28;20029;-59
2023/05/06 02:52:18;;;;;;;11.00;5.63;;;8.30;99.90;;;;;;4162107;28;20417;-63
2023/05/06 02:54:19;;;;;;;8.60;5.53;;;8.30;99.90;;;;;;4160089;28;20025;-75
2023/05/06 02:56:20;;;;;;;7.17;5.40;;;8.30;99.90;;;;;;4160007;28;20488;-69
2023/05/06 02:58:21;;;;;;;9.83;5.53;;;8.30;99.90;;;;;;4161787;28;20033;-57
2023/05/06 03:00:22;;;;;;;8.40;5.80;;;8.30;99.90;;;;;;4141800;28;20042;-58
2023/05/06 03:02:24;;;;;;;10.03;5.80;;;8.30;99.90;;;;;;4146320;28;20029;-58
2023/05/06 03:04:25;;;;;;;7.40;5.17;;;8.20;99.90;;;;;;4144782;28;20458;-61
2023/05/06 03:06:26;;;;;;;8.40;5.17;;;8.30;99.90;;;;;;4145917;28;20065;-57
2023/05/06 03:08:27;;;;;;;10.47;5.27;;;8.30;99.90;;;;;;4145049;28;20042;-58
2023/05/06 03:10:28;;;;;;;8.07;5.70;;;8.30;99.90;;;;;;4145679;28;20096;-58
2023/05/06 03:12:29;;;;;;;10.43;5.20;;;8.20;99.90;;;;;;4144646;28;20084;-57
2023/05/06 03:14:30;;;;;;;9.83;5.47;;;8.30;99.90;;;;;;4146068;28;20103;-59
2023/05/06 03:16:31;;;;;;;9.97;5.03;;;8.40;99.90;;;;;;4144697;28;20029;-59
2023/05/06 03:18:33;;;;;;;8.77;4.43;;;8.40;99.90;;;;;;4145352;28;20123;-58
2023/05/06 03:20:34;;;;;;;6.50;4.87;;;8.50;99.90;;;;;;4145525;28;20065;-58
2023/05/06 03:22:35;;;;;;;10.03;4.67;;;8.70;99.90;;;;;;4145387;28;20041;-57
2023/05/06 03:24:36;;;;;;;6.30;4.43;;;8.80;99.90;;;;;;4145016;28;20030;-59
2023/05/06 03:26:37;;;;;;;6.63;4.57;;;9.00;99.90;;;;;;4144669;28;20104;-71
2023/05/06 03:28:38;;;;;;;9.90;4.53;;;9.10;99.90;;;;;;4145479;28;20022;-57
2023/05/06 03:30:39;;;;;;;7.40;4.60;;;9.30;99.90;;;;;;4151098;28;20091;-58
2023/05/06 03:32:40;;;;;;;7.20;5.03;;;9.40;99.90;;;;;;4161846;28;20083;-70
2023/05/06 03:34:42;;;;;;;12.13;5.00;;;9.50;99.90;;;;;;4160912;28;20025;-73
2023/05/06 03:36:44;;;;;;;8.40;4.93;;;9.80;99.90;;;;;;4161567;28;20049;-59
2023/05/06 03:38:45;;;;;;;8.57;4.90;;;10.10;99.90;;;;;;4160955;28;20038;-73
2023/05/06 03:40:46;;;;;;;9.90;5.53;;;10.50;99.90;;;;;;4158488;28;20025;-58
2023/05/06 03:42:47;;;;;;;8.73;5.00;;;10.70;99.90;;;;;;4156770;28;20089;-56
2023/05/06 03:44:48;;;;;;;9.57;5.23;;;10.90;99.90;;;;;;4161661;28;20076;-74
2023/05/06 03:46:50;;;;;;;11.70;5.43;;;11.10;99.90;;;;;;4159306;28;20433;-78
2023/05/06 03:48:51;;;;;;;10.23;5.30;;;11.30;99.90;;;;;;4161790;28;20551;-60
2023/05/06 03:50:52;;;;;;;11.47;5.60;;;11.60;99.90;;;;;;4161451;28;20029;-57
2023/05/06 03:52:53;;;;;;;12.63;5.90;;;12.00;99.90;;;;;;4161222;28;20033;-72
2023/05/06 03:54:54;;;;;;;12.70;5.90;;;12.40;99.90;;;;;;4160310;28;20029;-69
2023/05/06 03:56:55;;;;;;;11.73;5.63;;;12.70;99.90;;;;;;4159144;28;20029;-76
2023/05/06 03:58:56;;;;;;;8.47;4.90;;;13.30;99.90;;;;;;4161659;28;20034;-56
2023/05/06 04:00:59;;;;;;;9.80;4.83;;;14.00;99.90;;;;;;4160078;28;20045;-76
2023/05/06 04:03:00;;;;;;;9.27;4.57;;;14.70;99.90;;;;;;4152583;28;20529;-61
2023/05/06 04:05:02;;;;;;;7.83;4.70;;;15.30;99.90;;;;;;4144636;28;20049;-71
2023/05/06 04:07:03;;;;;;;9.23;4.37;;;15.70;99.90;;;;;;4145495;28;20025;-73
2023/05/06 04:09:05;;;;;;;7.30;4.53;;;16.10;99.90;;;;;;4144256;28;20302;-56
2023/05/06 04:11:07;;;;;;;7.30;4.30;;;16.50;99.90;;;;;;4147716;28;20045;-61
2023/05/06 04:13:08;;;;;;;6.43;4.20;;;16.90;99.90;;;;;;4147134;28;20053;-70
2023/05/06 04:15:09;;;;;;;9.23;4.10;;;16.60;99.90;;;;;;4149078;28;20034;-57
2023/05/06 04:17:10;;;;;;;11.13;4.15;;;16.40;99.90;;;;;;4147335;28;20025;-66
2023/05/06 04:19:11;;;;;;;12.32;5.00;;;16.20;99.90;;;;;;4148087;28;20101;-74
2023/05/06 04:21:13;;;;;;;8.98;4.68;;;16.40;99.90;;;;;;4147374;28;20034;-71
2023/05/06 04:23:15;;;;;;;11.32;4.13;;;16.70;99.90;;;;;;4148155;28;20100;-59
2023/05/06 04:25:18;;;;;;;4.40;3.70;;;17.00;99.90;;;;;;4150303;28;20033;-67
2023/05/06 04:27:19;;;;;;;8.38;4.00;;;17.50;99.90;;;;;;4141732;28;20081;-73
2023/05/06 04:29:20;;;;;;;5.50;3.95;;;18.00;99.90;;;;;;4164388;28;20436;-71
2023/05/06 04:31:22;;;;;;;6.15;3.97;;;18.40;99.90;;;;;;4161639;28;20556;-60
2023/05/06 04:33:24;;;;;;;7.45;4.30;;;18.70;99.90;;;;;;4163952;28;20050;-64
2023/05/06 04:35:25;;;;;;;6.00;3.90;;;18.80;99.70;;;;;;4162767;28;20045;-69
2023/05/06 04:37:27;;;;;;;8.35;4.25;;;18.90;99.60;;;;;;4147083;28;20095;-77
2023/05/06 04:39:28;;;;;;;15.82;4.93;;;19.00;98.80;;;;;;4163368;28;20091;-58
2023/05/06 04:41:29;;;;;;;11.70;5.03;;;18.80;98.70;;;;;;4163891;28;20049;-67
2023/05/06 04:43:31;;;;;;;11.65;4.68;;;18.40;98.60;;;;;;4160060;28;20100;-64
2023/05/06 04:45:33;;;;;;;12.00;5.40;;;18.10;98.80;;;;;;4160894;28;20033;-62
2023/05/06 04:47:34;;;;;;;7.65;4.80;;;17.90;98.80;;;;;;4162683;28;20075;-65
2023/05/06 04:49:35;;;;;;;7.32;4.53;;;17.50;98.80;;;;;;4163733;28;20474;-79
2023/05/06 04:51:36;;;;;;;11.65;4.70;;;17.50;98.90;;;;;;4162005;28;20477;-59
2023/05/06 04:53:38;;;;;;;8.43;4.70;;;17.70;98.60;;;;;;4163633;28;20076;-64
2023/05/06 04:55:39;;;;;;;8.93;4.80;;;17.80;98.30;;;;;;4161174;28;20583;-74
2023/05/06 04:57:40;;;;;;;8.30;4.22;;;17.90;98.20;;;;;;4161353;28;20091;-76
2023/05/06 04:59:41;;;;;;;8.05;5.15;;;18.10;98.10;;;;;;4155038;28;20052;-64
2023/05/06 05:01:42;;;;;;;12.40;4.90;;;18.40;97.80;;;;;;4146662;28;20037;-73
2023/05/06 05:03:44;;;;;;;8.70;5.20;;;18.80;97.40;;;;;;4150049;28;20438;-66
2023/05/06 05:05:45;;;;;;;5.57;4.75;;;18.90;96.90;;;;;;4146261;28;20041;-69
2023/05/06 05:07:46;;;;;;;9.82;4.70;;;19.00;96.80;;;;;;4147518;28;20030;-69
2023/05/06 05:09:47;;;;;;;9.35;5.00;;;19.10;96.60;;;;;;4146347;28;20104;-60
2023/05/06 05:11:48;;;;;;;8.43;5.63;;;19.70;96.10;;;;;;4147562;28;20029;-60
2023/05/06 05:13:50;;;;;;;13.05;4.93;;;20.20;95.30;;;;;;4146007;28;20045;-68
2023/05/06 05:15:54;;;;;;;6.78;4.90;;;20.20;94.60;;;;;;4147443;28;20093;-60
2023/05/06 05:17:56;;;;;;;5.40;4.72;;;20.20;94.20;;;;;;4146291;28;20037;-67
2023/05/06 05:19:57;;;;;;;8.05;5.15;;;20.20;94.30;;;;;;4147304;28;20080;-60
2023/05/06 05:21:58;;;;;;;10.05;5.22;;;20.50;94.00;;;;;;4146035;28;20076;-69
2023/05/06 05:23:59;;;;;;;10.98;5.32;;;20.70;93.70;;;;;;4146781;28;20438;-60
2023/05/06 05:26:00;;;;;;;6.47;5.63;;;20.60;93.20;;;;;;4146311;28;20030;-59
2023/05/06 05:28:02;;;;;;;12.48;5.70;;;20.10;93.40;;;;;;4146636;28;20105;-59
2023/05/06 05:30:03;;;;;;;11.77;5.80;;;19.90;93.60;;;;;;4146515;28;20112;-59
2023/05/06 05:32:04;;;;;;;8.70;4.93;;;19.70;93.40;;;;;;4145831;28;20034;-58
2023/05/06 05:34:05;;;;;;;11.75;5.72;;;19.10;93.70;;;;;;4146451;28;20042;-57
2023/05/06 05:36:07;;;;;;;10.63;5.65;;;18.90;94.20;;;;;;4146016;28;20124;-56
2023/05/06 05:38:08;;;;;;;15.10;5.28;;;19.30;94.10;;;;;;4147218;28;20560;-59
2023/05/06 05:40:09;;;;;;;11.68;5.05;;;19.50;93.60;;;;;;4146033;28;20029;-59
2023/05/06 05:42:11;;;;;;;12.00;5.30;;;19.60;93.50;;;;;;4147142;28;20089;-59
2023/05/06 05:44:12;;;;;;;11.68;5.88;;;19.80;93.40;;;;;;4145954;28;20080;-58
2023/05/06 05:46:13;;;;;;;9.90;5.72;;;19.60;93.10;;;;;;4146444;28;20046;-60
2023/05/06 05:48:14;;;;;;;9.75;4.93;;;19.70;93.20;;;;;;4145930;28;20312;-58
2023/05/06 05:50:15;;;;;;;11.13;5.50;;;19.70;93.10;;;;;;4147311;28;20026;-59
2023/05/06 05:52:16;;;;;;;9.18;4.65;;;19.90;92.90;;;;;;4147442;28;20034;-60
2023/05/06 05:54:17;;;;;;;6.97;4.35;;;20.50;92.50;;;;;;4150040;28;20068;-61
2023/05/06 05:56:19;;;;;;;6.97;5.05;;;20.30;92.20;;;;;;4145258;28;20046;-58
2023/05/06 05:58:20;;;;;;;7.97;4.53;;;20.00;92.30;;;;;;4145984;28;20060;-66
2023/05/06 06:00:21;;;;;;;9.70;4.45;;;19.90;92.20;;;;;;4146563;28;20080;-59
2023/05/06 06:02:22;;;;;;;7.47;4.75;;;19.70;92.30;;;;;;4145270;28;20084;-60
2023/05/06 06:04:24;;;;;;;8.00;4.95;;;19.70;92.70;;;;;;4146459;28;20026;-61
2023/05/06 06:06:25;;;;;;;9.45;6.18;;;19.60;92.60;;;;;;4145304;28;20453;-64
2023/05/06 06:08:28;;;;;;;11.25;6.00;;;19.40;92.80;;;;;;4146750;28;20045;-69
2023/05/06 06:10:29;;;;;;;7.65;5.03;;;19.20;93.00;;;;;;4162198;28;20470;-66
2023/05/06 06:12:30;;;;;;;11.75;6.05;;;19.30;93.20;;;;;;4151395;28;20033;-73
2023/05/06 06:14:31;;;;;;;8.70;4.90;;;19.30;93.30;;;;;;4157185;28;20116;-58
2023/05/06 06:16:33;;;;;;;17.08;7.18;;;19.20;93.40;;;;;;4153615;28;20068;-59
2023/05/06 06:18:34;;;;;;;8.80;5.60;;;19.10;93.60;;;;;;4148723;28;20054;-69
2023/05/06 06:20:36;;;;;;;11.85;5.05;;;18.80;93.90;;;;;;4158765;28;20038;-73
2023/05/06 06:22:37;;;;;;;18.52;5.30;;;18.40;94.30;;;;;;4153724;28;20080;-66
2023/05/06 06:24:38;;;;;;;15.80;5.40;;;17.80;95.10;;;;;;4148849;28;20115;-73
2023/05/06 06:26:39;;;;;;;12.48;6.28;;;17.70;95.70;;;;;;4145463;28;20022;-75
2023/05/06 06:28:40;;;;;;;14.77;5.75;;;17.80;96.30;;;;;;4145738;28;20092;-77
2023/05/06 06:30:41;;;;;;;19.60;6.93;;;17.60;96.10;;;;;;4145405;28;20038;-64
2023/05/06 06:32:51;;;;;;;20.10;7.15;;;17.40;96.80;;;;;;4144744;28;20034;-66
2023/05/06 06:34:52;;;;;;;14.38;5.97;;;17.70;96.60;;;;;;4145867;28;20034;-69
2023/05/06 06:36:53;;;;;;;14.02;6.95;;;17.50;97.10;;;;;;4145049;28;20092;-74
2023/05/06 06:38:54;;;;;;;16.48;7.75;;;17.40;97.60;;;;;;4144008;28;20099;-68
2023/05/06 06:40:55;;;;;;;11.63;6.53;;;17.30;97.90;;;;;;4160312;28;20080;-79
2023/05/06 06:42:57;;;;;;;18.52;6.68;;;17.20;98.30;;;;;;4162852;28;20478;-61
2023/05/06 06:44:58;;;;;;;15.60;6.13;;;17.20;98.70;;;;;;4161719;28;20025;-61
2023/05/06 06:46:59;;;;;;;12.88;6.53;;;17.20;98.70;;;;;;4162186;28;20026;-62
2023/05/06 06:49:00;;;;;;;16.90;6.22;;;17.10;99.60;;;;;;4161331;28;20540;-61
2023/05/06 06:51:01;;;;;;;14.38;5.43;;;17.10;99.80;;;;;;4162217;28;20025;-59
2023/05/06 06:53:03;;;;;;;13.38;5.57;;;17.00;99.90;;;;;;4160833;28;20030;-61
2023/05/06 06:55:04;;;;;;;11.63;4.90;;;17.10;99.90;;;;;;4162306;28;20792;-61
2023/05/06 06:57:06;;;;;;;9.52;5.28;;;17.20;99.90;;;;;;4160342;28;20452;-60
2023/05/06 06:59:07;;;;;;;11.15;5.60;;;17.50;99.90;;;;;;4161856;28;20045;-62
2023/05/06 07:01:09;;;;;;;7.47;4.53;;;17.60;99.90;;;;;;4160699;28;20029;-61
2023/05/06 07:03:10;;;;;;;10.45;4.68;;;17.90;99.90;;;;;;4161616;28;20101;-59
2023/05/06 07:05:11;;;;;;;7.70;4.15;;;18.10;99.90;;;;;;4161599;28;20433;-62
2023/05/06 07:07:13;;;;;;;8.10;5.22;;;18.20;99.90;;;;;;4160480;28;21038;-59
2023/05/06 07:09:14;;;;;;;8.95;4.15;;;18.10;99.90;;;;;;4161141;28;20034;-56
2023/05/06 07:11:15;;;;;;;7.50;4.35;;;18.30;99.90;;;;;;4159834;28;20083;-59
2023/05/06 07:13:16;;;;;;;6.15;3.70;;;18.00;99.90;;;;;;4161277;28;20037;-58
2023/05/06 07:15:17;;;;;;;6.03;3.83;;;18.10;99.90;;;;;;4157822;28;20033;-60
2023/05/06 07:17:18;;;;;;;4.78;2.78;;;18.30;99.90;;;;;;4161293;28;20049;-60
2023/05/06 07:19:20;;;;;;;6.18;3.42;;;18.30;99.90;;;;;;4148360;28;20076;-57
2023/05/06 07:21:21;;;;;;;5.35;3.20;;;18.50;99.90;;;;;;4161922;28;20033;-57
2023/05/06 07:23:22;;;;;;;8.45;4.15;;;18.60;99.90;;;;;;4160730;28;20095;-82
2023/05/06 07:25:23;;;;;;;3.30;1.60;;;18.90;99.90;;;;;;4150094;28;20095;-78
2023/05/06 07:27:26;;;;;;;2.60;1.30;;;19.10;98.90;;;;;;4154450;28;20082;-59
2023/05/06 07:29:27;;;;;;;5.47;1.63;;;19.30;98.20;;;;;;4161811;28;20025;-62
2023/05/06 07:31:28;;;;;;;2.75;1.15;;;19.40;97.70;;;;;;4160707;28;20387;-64
2023/05/06 07:33:29;;;;;;;2.40;1.20;;;19.50;97.20;;;;;;4161272;28;20446;-62
2023/05/06 07:35:31;;;;;;;2.33;1.67;;;19.50;96.80;;;;;;4150548;28;20482;-59
2023/05/06 07:37:32;;;;;;;1.73;1.42;;;19.50;96.30;;;;;;4157318;28;20784;-68
2023/05/06 07:39:33;;;;;;;2.00;1.00;;;19.50;96.00;;;;;;4161426;28;20026;-73
2023/05/06 07:41:34;;;;;;;0.80;0.80;;;19.50;95.90;;;;;;4146569;28;20089;-75
2023/05/06 07:43:36;;;;;;;1.40;1.10;;;19.60;95.30;;;;;;4145364;28;20034;-80
2023/05/06 07:45:37;;;;;;;4.72;1.10;;;19.60;94.60;;;;;;4143763;28;20088;-76
2023/05/06 07:47:38;;;;;;;3.80;1.30;;;19.70;93.90;;;;;;4144927;28;20356;-63
2023/05/06 07:49:39;;;;;;;4.03;1.17;;;19.70;93.70;;;;;;4143117;28;20034;-61
2023/05/06 07:51:41;;;;;;;3.08;1.17;;;20.00;93.80;;;;;;4145207;28;20022;-58
2023/05/06 07:53:42;;;;;;;3.20;1.30;;;20.10;93.40;;;;;;4156584;28;20037;-68
2023/05/06 07:55:43;;;;;;;2.10;1.30;;;20.20;93.00;;;;;;4160504;28;20042;-66
2023/05/06 07:57:45;;;;;;;2.03;1.30;;;20.10;92.80;;;;;;4160140;28;20025;-58
2023/05/06 07:59:47;;;;;;;1.80;1.60;;;20.00;92.70;;;;;;4161492;28;20638;-59
2023/05/06 08:01:48;;;;;;;3.45;1.65;;;20.00;93.00;;;;;;4160039;28;20424;-61
2023/05/06 08:03:49;;;;;;;4.15;1.40;;;20.10;92.90;;;;;;4160709;28;20029;-59
2023/05/06 08:05:51;;;;;;;3.28;1.60;;;20.00;92.60;;;;;;4159984;28;20771;-65
2023/05/06 08:07:52;;;;;;;4.47;1.67;;;20.10;92.80;;;;;;4160142;28;20095;-58
2023/05/06 08:09:55;;;;;;;1.85;1.50;;;20.40;92.80;;;;;;4160764;28;20387;-65
2023/05/06 08:11:57;;;;;;;1.40;1.20;;;20.50;92.30;;;;;;4160082;28;20030;-56
2023/05/06 08:13:58;;;;;;;1.98;1.33;;;20.40;92.30;;;;;;4160778;28;20107;-59
2023/05/06 08:16:01;;;;;;;3.30;1.45;;;20.40;92.10;;;;;;4159772;28;20075;-59
2023/05/06 08:18:02;;;;;;;3.45;1.30;;;20.40;92.10;;;;;;4160814;28;20096;-68
2023/05/06 08:20:04;;;;;;;4.55;1.52;;;20.40;92.10;;;;;;4160000;28;20041;-60
2023/05/06 08:22:05;;;;;;;27.33;11.57;;;20.40;91.80;;;;;;4160403;28;20079;-59
2023/05/06 08:24:06;;;;;;;3.20;1.33;;;20.60;91.90;;;;;;4160278;28;20091;-58
2023/05/06 08:26:07;;;;;;;24.55;9.48;;;20.70;91.70;;;;;;4160725;28;20088;-60
2023/05/06 08:28:08;;;;;;;2.72;1.45;;;20.90;91.70;;;;;;4159720;28;20428;-64
2023/05/06 08:30:10;;;;;;;3.22;1.52;;;21.20;91.30;;;;;;4148510;28;20034;-60
2023/05/06 08:32:11;;;;;;;2.17;1.70;;;21.20;91.10;;;;;;4143677;28;20084;-59
2023/05/06 08:34:12;;;;;;;1.50;1.40;;;21.20;91.10;;;;;;4144329;28;20432;-61
2023/05/06 08:36:13;;;;;;;2.95;1.80;;;21.10;90.80;;;;;;4155900;28;20119;-59
2023/05/06 08:38:14;;;;;;;2.55;1.40;;;21.10;90.80;;;;;;4144169;28;20096;-70
2023/05/06 08:40:20;;;;;;;21.85;2.30;;;21.10;90.50;;;;;;4150675;28;20422;-62
2023/05/06 08:42:24;;;;;;;2.53;1.58;;;20.90;90.30;;;;;;4152485;28;20037;-66
2023/05/06 08:44:25;;;;;;;4.03;1.58;;;20.70;90.70;;;;;;4147003;28;20065;-69
2023/05/06 08:46:29;;;;;;;1.77;1.60;;;20.80;90.90;;;;;;4143148;28;20030;-60
2023/05/06 08:48:30;;;;;;;5.10;1.73;;;20.80;90.70;;;;;;4143946;28;20100;-60
2023/05/06 08:50:35;;;;;;;1.95;1.42;;;20.80;90.90;;;;;;4142991;28;20148;-71
2023/05/06 08:52:38;;;;;;;3.33;1.40;;;20.90;90.70;;;;;;4144608;28;20038;-73
2023/05/06 08:54:40;;;;;;;4.18;2.15;;;21.00;90.60;;;;;;4143383;28;20451;-58
2023/05/06 08:56:51;;;;;;;1.85;1.45;;;20.90;90.50;;;;;;4145966;28;20053;-74
2023/05/06 08:58:54;;;;;;;3.38;1.40;;;21.00;90.30;;;;;;4146119;28;20047;-67
2023/05/06 09:00:55;;;;;;;3.05;1.20;;;20.90;90.30;;;;;;4148350;28;20434;-66
2023/05/06 09:02:56;;;;;;;5.53;1.60;;;20.80;90.30;;;;;;4148424;28;20418;-72
2023/05/06 09:04:59;;;;;;;2.17;1.20;;;20.80;90.30;;;;;;4146911;28;20038;-69
2023/05/06 09:07:00;;;;;;;2.00;1.15;;;20.90;90.10;;;;;;4146276;28;20041;-71
2023/05/06 09:09:01;;;;;;;1.45;1.20;;;21.20;90.10;;;;;;4147010;28;20038;-68
2023/05/06 09:11:02;;;;;;;4.15;0.90;;;21.10;90.00;;;;;;4145851;28;20049;-63
2023/05/06 09:13:03;;;;;;;1.70;1.30;;;21.20;90.30;;;;;;4146293;28;20046;-61
2023/05/06 09:15:05;;;;;;;2.92;1.38;;;21.10;90.10;;;;;;4146952;28;20532;-61
2023/05/06 09:17:27;;;;;;;1.75;1.10;;;21.10;90.10;;;;;;4146274;28;20046;-74
2023/05/06 09:19:28;;;;;;;1.63;0.88;;;21.10;89.90;;;;;;4146106;28;20096;-60
2023/05/06 09:21:33;;;;;;;4.85;1.48;;;21.00;89.80;;;;;;4146273;28;20033;-64
2023/05/06 09:23:34;;;;;;;7.13;1.42;;;20.90;89.50;;;;;;4146935;28;20030;-64
2023/05/06 09:25:36;;;;;;;2.25;1.67;;;21.10;90.30;;;;;;4146632;28;20569;-65
2023/05/06 09:27:37;;;;;;;1.65;1.02;;;21.10;90.00;;;;;;4146734;28;20111;-66
2023/05/06 09:29:38;;;;;;;2.78;1.70;;;21.10;89.20;;;;;;4145875;28;20026;-65
2023/05/06 09:31:45;;;;;;;1.85;1.25;;;21.00;89.50;;;;;;4146982;28;20038;-68
2023/05/06 09:33:46;;;;;;;4.90;1.42;;;21.20;90.00;;;;;;4146159;28;20112;-58
2023/05/06 09:35:48;;;;;;;4.28;1.45;;;21.40;89.10;;;;;;4147301;28;20030;-76
2023/05/06 09:37:50;;;;;;;5.75;1.48;;;21.20;88.10;;;;;;4145288;28;20410;-59
2023/05/06 09:39:59;;;;;;;3.90;1.35;;;21.20;88.30;;;;;;4146774;28;20098;-72
2023/05/06 09:42:01;;;;;;;2.75;0.98;;;21.20;88.70;;;;;;4145965;28;20026;-72
2023/05/06 09:44:02;;;;;;;1.05;0.90;;;21.10;88.00;;;;;;4146851;28;20025;-59
2023/05/06 09:46:05;;;;;;;1.33;1.08;;;20.90;88.60;;;;;;4145339;28;20065;-74
2023/05/06 09:48:07;;;;;;;1.40;1.30;;;20.90;88.00;;;;;;4129126;28;20042;-59
2023/05/06 09:50:09;;;;;;;4.05;1.10;;;20.90;87.90;;;;;;4145587;28;20069;-66
2023/05/06 09:52:11;;;;;;;4.10;1.27;;;21.00;88.60;;;;;;4146482;28;20529;-59
2023/05/06 09:54:15;;;;;;;2.05;1.17;;;21.10;88.90;;;;;;4146192;28;20425;-75
2023/05/06 09:56:16;;;;;;;2.40;0.90;;;21.10;88.00;;;;;;4145750;28;20183;-60
2023/05/06 09:58:19;;;;;;;2.17;1.25;;;21.10;87.80;;;;;;4146179;28;20530;-68
2023/05/06 10:00:26;;;;;;;2.67;1.10;;;21.10;87.50;;;;;;4145562;28;20104;-71
2023/05/06 10:02:28;;;;;;;2.47;1.10;;;21.00;88.10;;;;;;4146213;28;20021;-58
2023/05/06 10:04:32;;;;;;;2.42;1.20;;;21.10;88.60;;;;;;4145452;28;20037;-60
2023/05/06 10:06:35;;;;;;;2.53;1.10;;;21.20;88.10;;;;;;4146188;28;20101;-64
2023/05/06 10:08:37;;;;;;;1.40;1.10;;;21.40;87.30;;;;;;4144984;28;20461;-73
2023/05/06 10:10:40;;;;;;;2.45;2.03;;;21.20;88.00;;;;;;4146800;28;20038;-61
2023/05/06 10:12:42;;;;;;;1.38;1.00;;;21.40;88.00;;;;;;4145297;28;20085;-60
2023/05/06 10:14:43;;;;;;;1.25;0.93;;;21.20;86.90;;;;;;4146685;28;20084;-68
2023/05/06 10:16:48;;;;;;;1.63;1.00;;;21.20;87.20;;;;;;4145040;28;20038;-60
2023/05/06 10:18:53;;;;;;;1.20;1.10;;;21.30;87.40;;;;;;4146294;28;20089;-60
2023/05/06 10:20:55;;;;;;;3.10;1.15;;;21.30;87.70;;;;;;4144678;28;20099;-68
2023/05/06 10:23:13;;;;;;;3.67;1.52;;;21.30;88.20;;;;;;4145895;28;20089;-67
2023/05/06 10:25:31;;;;;;;1.77;1.10;;;21.40;87.50;;;;;;4145673;28;20037;-60
2023/05/06 10:27:38;;;;;;;3.72;1.08;;;21.50;88.30;;;;;;4146135;28;20029;-63
2023/05/06 10:29:42;;;;;;;2.70;1.02;;;21.50;88.40;;;;;;4144519;28;20042;-73
2023/05/06 10:31:47;;;;;;;1.80;1.00;;;21.40;89.00;;;;;;4145655;28;20481;-66
2023/05/06 10:33:51;;;;;;;1.58;1.42;;;21.50;88.70;;;;;;4144926;28;20144;-61
2023/05/06 10:36:20;;;;;;;2.25;1.10;;;21.60;88.20;;;;;;4145983;28;20089;-73
2023/05/06 10:38:35;;;;;;;1.42;1.02;;;21.60;87.50;;;;;;4145030;28;20038;-70